Analomink, Pennsylvania
Current Conditions -  °F | °C
As of 7:53 AM on Friday 24 Oct 2014 (Local Time) from KMPO Reporting Station
Overcast Overcast  
Wind Chill: 37°   Ceiling: 1500
Heat Index: 45°   Visibility: 10mi
Dew Point: 40°   Wind: 21mph
Humidity: 82%   Direction: 330°NNW
Pressure: 29.82"   Gusts: 35mph
Location:  41.05°N, 75.22°W
Report Text: KMPO 241153Z AUTO 33018G30KT 10SM BKN015 OVC028 07/04 A2982 RMK AO2 PK WND 33033/1133 SLP106 6//// 7//// T00720044 10078 20072 50007 TSNO PNO $
Loading
Personal Weather Stations






























Interactive Weather Map
Tropical Storm Tracking
New forecast layout! Learn more

10-Day Weather Forecast

Advertisements
Track Severe Weather on mobile